Time;durP1;ratioP1;P1;durP2;ratioP2;P2;SDS_P1;SDS_P2;PMS_P1;PMS_P2;Temp;Humidity;BMP_temperature;BMP_pressure;BME280_temperature;BME280_humidity;BME280_pressure;Samples;Min_cycle;Max_cycle;Signal;HPM_P1;HPM_P2
2022/11/22 00:01:08;;;;;;;307.97;287.10;;;7.00;24.10;;;;;;5055512;28;20477;-72
2022/11/22 00:03:34;;;;;;;515.70;483.50;;;7.00;23.80;;;;;;5073294;28;20558;-71
2022/11/22 00:05:59;;;;;;;372.73;349.03;;;7.00;23.70;;;;;;5073379;28;20241;-71
2022/11/22 00:08:25;;;;;;;321.80;300.73;;;7.00;23.70;;;;;;5073517;28;20164;-71
2022/11/22 00:10:50;;;;;;;285.57;266.13;;;7.00;24.00;;;;;;5073402;28;20718;-71
2022/11/22 00:13:17;;;;;;;260.77;243.33;;;7.00;24.40;;;;;;5073068;28;20219;-71
2022/11/22 00:15:43;;;;;;;358.10;336.20;;;7.10;24.40;;;;;;5073212;28;20184;-71
2022/11/22 00:18:08;;;;;;;364.37;339.77;;;7.10;23.60;;;;;;5072118;28;20431;-71
2022/11/22 00:20:34;;;;;;;366.47;342.90;;;7.10;24.00;;;;;;5073175;28;20453;-71
2022/11/22 00:23:00;;;;;;;387.23;363.03;;;7.10;23.90;;;;;;5072967;28;20200;-71
2022/11/22 00:25:25;;;;;;;311.80;291.43;;;7.10;23.70;;;;;;5055029;28;20355;-71
2022/11/22 00:27:51;;;;;;;291.60;271.87;;;7.20;24.00;;;;;;5073014;28;20516;-71
2022/11/22 00:30:17;;;;;;;452.87;423.37;;;7.20;23.60;;;;;;5072920;28;20417;-71
2022/11/22 00:32:43;;;;;;;289.83;270.53;;;7.20;24.30;;;;;;5063278;28;20245;-71
2022/11/22 00:35:10;;;;;;;481.00;449.20;;;7.20;24.50;;;;;;5052955;28;20264;-71
2022/11/22 00:37:36;;;;;;;266.50;247.63;;;7.20;24.00;;;;;;5053313;28;20208;-71
2022/11/22 00:40:03;;;;;;;342.13;321.93;;;7.20;24.20;;;;;;5052866;28;20448;-70
2022/11/22 00:42:29;;;;;;;239.90;223.77;;;7.20;24.30;;;;;;5034596;28;20184;-71
2022/11/22 00:44:54;;;;;;;520.97;489.73;;;7.30;24.50;;;;;;5034685;28;20460;-70
2022/11/22 00:47:20;;;;;;;447.30;419.73;;;7.30;23.70;;;;;;5034807;28;20191;-71
2022/11/22 00:49:45;;;;;;;382.80;359.40;;;7.30;23.90;;;;;;5052679;28;20179;-70
2022/11/22 00:52:11;;;;;;;428.10;401.90;;;7.40;23.50;;;;;;5034531;28;20651;-70
2022/11/22 00:54:36;;;;;;;345.70;322.87;;;7.50;22.80;;;;;;5052532;28;20194;-71
2022/11/22 00:57:02;;;;;;;496.50;465.70;;;7.40;22.80;;;;;;5052448;28;20522;-71
2022/11/22 00:59:27;;;;;;;458.00;429.70;;;7.40;23.30;;;;;;5034527;28;20201;-71
2022/11/22 01:01:53;;;;;;;396.30;372.07;;;7.30;23.20;;;;;;5034370;28;20171;-72
2022/11/22 01:04:18;;;;;;;248.67;232.03;;;7.30;23.10;;;;;;5034603;28;20197;-71
2022/11/22 01:06:44;;;;;;;305.97;285.13;;;7.30;23.10;;;;;;5052214;28;20208;-71
2022/11/22 01:09:12;;;;;;;382.70;358.60;;;7.30;23.00;;;;;;5052750;28;20653;-71
2022/11/22 01:11:38;;;;;;;349.27;326.17;;;7.30;22.90;;;;;;5052166;28;20177;-72
2022/11/22 01:14:03;;;;;;;461.50;433.57;;;7.30;23.00;;;;;;5051887;28;20957;-71
2022/11/22 01:16:29;;;;;;;430.07;403.00;;;7.20;23.10;;;;;;5034351;28;20188;-71
2022/11/22 01:18:54;;;;;;;472.40;441.90;;;7.20;23.40;;;;;;5034371;28;20646;-72
2022/11/22 01:21:20;;;;;;;402.87;376.87;;;7.30;23.80;;;;;;5034448;28;20693;-69
2022/11/22 01:23:45;;;;;;;331.37;309.90;;;7.30;22.80;;;;;;5033928;28;20675;-69
2022/11/22 01:26:11;;;;;;;519.70;488.70;;;7.30;22.70;;;;;;5051884;28;20225;-69
2022/11/22 01:28:37;;;;;;;218.67;203.07;;;7.30;23.30;;;;;;5051632;28;20182;-72
2022/11/22 01:31:03;;;;;;;454.27;426.90;;;7.40;22.90;;;;;;5051982;28;20179;-69
2022/11/22 01:33:29;;;;;;;411.10;384.53;;;7.50;22.30;;;;;;5051376;28;20212;-71
2022/11/22 01:35:55;;;;;;;374.50;351.43;;;7.60;22.40;;;;;;5051850;28;20910;-72
2022/11/22 01:38:20;;;;;;;377.10;352.00;;;7.60;22.60;;;;;;5034097;28;20678;-71
2022/11/22 01:40:46;;;;;;;454.73;427.90;;;7.50;22.80;;;;;;5051768;28;20653;-70
2022/11/22 01:43:23;;;;;;;534.73;503.27;;;7.50;23.60;;;;;;5051529;28;20208;-70
2022/11/22 01:45:56;;;;;;;282.30;263.47;;;7.60;23.90;;;;;;5051644;28;20450;-70
2022/11/22 01:48:29;;;;;;;481.37;451.47;;;7.40;25.00;;;;;;5051776;28;20413;-70
2022/11/22 01:51:19;;;;;;;277.23;259.40;;;7.30;25.80;;;;;;5051668;28;20914;-70
2022/11/22 01:53:45;;;;;;;351.77;328.87;;;7.40;26.50;;;;;;5051530;28;20865;-69
2022/11/22 01:56:13;;;;;;;209.63;195.40;;;7.20;26.80;;;;;;5052009;28;20487;-69
2022/11/22 01:58:40;;;;;;;442.00;412.17;;;7.20;27.60;;;;;;5051737;28;20710;-69
2022/11/22 02:01:06;;;;;;;339.03;317.43;;;7.10;27.80;;;;;;5051626;28;20775;-70
2022/11/22 02:03:34;;;;;;;609.53;568.00;;;7.00;28.30;;;;;;5051347;28;20438;-72
2022/11/22 02:06:01;;;;;;;726.10;676.03;;;7.00;29.00;;;;;;5051452;28;20466;-70
2022/11/22 02:08:52;;;;;;;356.67;333.10;;;7.00;29.50;;;;;;5051594;28;20420;-70
2022/11/22 02:11:20;;;;;;;343.07;318.40;;;7.00;29.70;;;;;;5051487;28;20413;-70
2022/11/22 02:13:46;;;;;;;208.50;193.53;;;6.90;29.60;;;;;;5033205;28;20440;-70
2022/11/22 02:16:12;;;;;;;223.93;207.90;;;6.90;29.50;;;;;;5051383;28;20414;-70
2022/11/22 02:18:38;;;;;;;422.07;393.83;;;6.90;30.00;;;;;;5051685;28;20405;-70
2022/11/22 02:21:04;;;;;;;412.10;385.53;;;6.90;30.70;;;;;;5051429;28;20190;-70
2022/11/22 02:23:47;;;;;;;376.93;350.60;;;6.90;30.60;;;;;;5033180;28;20195;-70
2022/11/22 02:26:13;;;;;;;272.93;254.33;;;6.90;30.80;;;;;;5033341;28;20460;-70
2022/11/22 02:28:39;;;;;;;394.87;369.20;;;6.90;30.40;;;;;;5051667;28;20415;-69
2022/11/22 02:31:05;;;;;;;206.50;191.83;;;7.00;30.00;;;;;;5051272;28;20405;-70
2022/11/22 02:33:31;;;;;;;208.00;192.83;;;7.00;30.00;;;;;;5050894;28;20460;-70
2022/11/22 02:35:57;;;;;;;607.00;565.33;;;7.00;29.70;;;;;;5051297;28;20456;-70
2022/11/22 02:38:33;;;;;;;301.80;282.07;;;7.00;29.70;;;;;;5051289;28;20176;-70
2022/11/22 02:41:03;;;;;;;335.57;311.23;;;7.00;29.70;;;;;;5052584;28;20410;-70
2022/11/22 02:43:30;;;;;;;305.80;284.80;;;7.10;29.70;;;;;;5036789;28;20437;-71
2022/11/22 02:46:05;;;;;;;571.97;536.33;;;7.00;29.20;;;;;;5054921;28;20850;-70
2022/11/22 02:48:31;;;;;;;314.30;291.20;;;6.90;29.50;;;;;;5037076;28;20424;-70
2022/11/22 02:50:57;;;;;;;575.50;539.20;;;6.90;29.60;;;;;;5054872;28;20985;-70
2022/11/22 02:53:23;;;;;;;570.40;533.40;;;7.00;29.60;;;;;;5054524;28;20482;-70
2022/11/22 02:55:49;;;;;;;622.43;579.80;;;6.90;29.60;;;;;;5054794;28;20496;-69
2022/11/22 02:58:14;;;;;;;444.83;414.27;;;6.90;29.10;;;;;;5054696;28;20613;-70
2022/11/22 03:00:40;;;;;;;366.97;342.80;;;6.80;29.50;;;;;;5036891;28;20426;-70
2022/11/22 03:03:05;;;;;;;746.90;692.00;;;6.70;30.40;;;;;;5054370;28;20192;-70
2022/11/22 03:05:31;;;;;;;586.00;548.20;;;6.60;30.80;;;;;;5036661;28;20235;-70
2022/11/22 03:07:56;;;;;;;219.73;205.03;;;6.60;31.00;;;;;;5054631;28;20171;-69
2022/11/22 03:10:22;;;;;;;577.63;541.90;;;6.70;31.60;;;;;;5054439;28;20179;-69
2022/11/22 03:12:48;;;;;;;476.83;445.23;;;6.70;30.80;;;;;;5036216;28;20185;-70
2022/11/22 03:15:13;;;;;;;441.17;408.67;;;6.70;30.50;;;;;;5054483;28;20175;-70
2022/11/22 03:17:39;;;;;;;333.13;310.33;;;6.70;30.60;;;;;;5036722;28;20195;-70
2022/11/22 03:20:05;;;;;;;355.67;329.37;;;6.70;29.90;;;;;;5036441;28;20186;-69
2022/11/22 03:22:30;;;;;;;556.03;520.13;;;6.60;31.50;;;;;;5053988;28;20226;-69
2022/11/22 03:24:56;;;;;;;265.37;247.43;;;6.60;31.70;;;;;;5054075;28;20867;-69
2022/11/22 03:27:21;;;;;;;629.23;587.47;;;6.70;30.80;;;;;;5054309;28;20174;-70
2022/11/22 03:29:47;;;;;;;304.30;285.50;;;6.70;30.80;;;;;;5054212;28;20198;-69
2022/11/22 03:32:13;;;;;;;372.53;345.60;;;6.80;30.90;;;;;;5053871;28;20180;-69
2022/11/22 03:34:38;;;;;;;464.03;432.30;;;6.80;30.60;;;;;;5053989;28;20295;-69
2022/11/22 03:37:04;;;;;;;467.33;439.10;;;6.80;29.60;;;;;;5054031;28;20175;-71
2022/11/22 03:39:29;;;;;;;472.03;439.33;;;6.80;30.00;;;;;;5053955;28;20188;-69
2022/11/22 03:41:55;;;;;;;314.20;293.27;;;6.80;30.00;;;;;;5053667;28;20178;-69
2022/11/22 03:44:21;;;;;;;349.63;325.23;;;6.80;29.50;;;;;;5053903;28;20681;-69
2022/11/22 03:46:47;;;;;;;561.60;524.23;;;6.80;29.50;;;;;;5036020;28;20214;-69
2022/11/22 03:49:12;;;;;;;538.90;503.87;;;6.80;29.50;;;;;;5035823;28;20436;-70
2022/11/22 03:51:38;;;;;;;407.97;381.17;;;6.80;29.50;;;;;;5053589;28;20188;-69
2022/11/22 03:54:03;;;;;;;510.17;473.80;;;6.80;29.20;;;;;;5053318;28;20206;-69
2022/11/22 03:56:29;;;;;;;512.47;480.27;;;6.80;29.50;;;;;;5036005;28;20603;-68
2022/11/22 03:58:55;;;;;;;557.90;523.27;;;6.80;29.30;;;;;;5053723;28;20171;-69
2022/11/22 04:01:20;;;;;;;431.93;401.50;;;6.80;28.60;;;;;;5035716;28;20183;-69
2022/11/22 04:03:46;;;;;;;664.13;616.43;;;6.70;28.00;;;;;;5053346;28;20826;-69
2022/11/22 04:06:11;;;;;;;634.67;589.47;;;6.80;27.50;;;;;;5053488;28;20620;-70
2022/11/22 04:08:37;;;;;;;603.93;562.37;;;6.70;27.90;;;;;;5053384;28;20648;-69
2022/11/22 04:11:02;;;;;;;678.70;631.13;;;6.70;28.40;;;;;;5053422;28;20596;-69
2022/11/22 04:16:12;;;;;;;510.40;475.73;;;6.60;28.50;;;;;;5053427;28;20221;-69
2022/11/22 04:18:38;;;;;;;446.50;414.43;;;6.60;29.00;;;;;;5053352;28;20441;-69
2022/11/22 04:25:12;;;;;;;388.97;363.43;;;6.40;29.30;;;;;;5052925;28;20608;-70
2022/11/22 04:26:32;;;;;;;275.67;255.67;;;6.40;29.20;;;;;;5052861;28;20469;-69
2022/11/22 04:28:58;;;;;;;581.37;544.83;;;6.30;29.20;;;;;;5053014;28;20429;-69
2022/11/22 04:34:07;;;;;;;584.10;544.30;;;6.20;29.20;;;;;;5052682;28;20301;-69
2022/11/22 04:36:33;;;;;;;363.03;339.73;;;6.10;30.10;;;;;;5052971;28;20440;-69
2022/11/22 04:38:58;;;;;;;543.20;504.83;;;6.00;31.50;;;;;;5041001;28;20273;-70
2022/11/22 04:41:24;;;;;;;687.33;640.87;;;5.90;31.10;;;;;;5053599;28;20225;-69
2022/11/22 04:46:34;;;;;;;424.53;395.77;;;5.80;32.00;;;;;;5072681;28;20309;-69
2022/11/22 04:48:59;;;;;;;601.63;561.90;;;5.70;32.20;;;;;;5072814;28;20409;-69
2022/11/22 04:54:09;;;;;;;373.10;344.33;;;5.70;33.50;;;;;;5072781;28;20624;-68
2022/11/22 04:56:34;;;;;;;268.47;250.07;;;5.60;33.50;;;;;;5054521;28;20478;-69
2022/11/22 04:59:00;;;;;;;713.43;665.60;;;5.60;32.70;;;;;;5072539;28;20208;-69
2022/11/22 05:01:25;;;;;;;563.27;525.70;;;5.60;32.90;;;;;;5072682;28;20171;-69
2022/11/22 05:03:51;;;;;;;656.27;612.30;;;5.60;32.60;;;;;;5053654;28;20194;-69
2022/11/22 05:06:16;;;;;;;209.20;195.27;;;5.60;32.10;;;;;;5054425;28;20280;-70
2022/11/22 05:08:42;;;;;;;415.23;385.50;;;5.60;32.10;;;;;;5072571;28;20163;-70
2022/11/22 05:11:07;;;;;;;678.50;632.40;;;5.60;31.50;;;;;;5072239;28;20174;-69
2022/11/22 05:13:36;;;;;;;522.63;485.67;;;5.60;31.60;;;;;;5071853;28;20227;-70
2022/11/22 05:16:03;;;;;;;348.40;322.70;;;5.60;31.70;;;;;;5072105;28;20178;-69
2022/11/22 05:18:29;;;;;;;507.13;472.13;;;5.60;32.30;;;;;;5072118;28;20431;-70
2022/11/22 05:20:55;;;;;;;512.10;476.47;;;5.60;32.70;;;;;;5072110;28;20419;-70
2022/11/22 05:26:07;;;;;;;628.57;586.70;;;5.50;32.70;;;;;;5072495;28;20597;-70
2022/11/22 05:28:35;;;;;;;587.00;550.60;;;5.50;33.00;;;;;;5072169;28;20408;-69
2022/11/22 05:31:08;;;;;;;557.47;523.77;;;5.40;33.30;;;;;;5072295;28;20525;-69
2022/11/22 05:33:35;;;;;;;531.97;496.50;;;5.40;33.10;;;;;;5072243;28;20498;-69
2022/11/22 05:36:01;;;;;;;495.43;464.80;;;5.40;33.30;;;;;;5071848;28;20427;-70
2022/11/22 05:38:26;;;;;;;645.50;603.70;;;5.40;33.30;;;;;;5071815;28;20419;-69
2022/11/22 05:40:52;;;;;;;343.90;318.53;;;5.40;33.30;;;;;;5071762;28;20260;-69
2022/11/22 05:43:17;;;;;;;477.40;442.73;;;5.40;33.90;;;;;;5071581;28;20225;-68
2022/11/22 05:45:43;;;;;;;547.20;512.83;;;5.30;34.30;;;;;;5053866;28;20201;-70
2022/11/22 05:48:09;;;;;;;548.53;516.60;;;5.30;34.40;;;;;;5053309;28;20638;-69
2022/11/22 05:50:34;;;;;;;608.00;571.80;;;5.30;34.80;;;;;;5071660;28;20227;-69
2022/11/22 05:53:01;;;;;;;497.57;466.50;;;5.30;34.80;;;;;;5071351;28;20240;-70
2022/11/22 05:55:27;;;;;;;674.53;633.00;;;5.30;35.10;;;;;;5071466;28;20268;-69
2022/11/22 05:57:53;;;;;;;282.07;261.40;;;5.40;34.80;;;;;;5053753;28;20466;-68
2022/11/22 06:00:18;;;;;;;500.10;466.43;;;5.40;34.60;;;;;;5072132;28;20473;-71
2022/11/22 06:02:44;;;;;;;295.10;274.07;;;5.40;34.20;;;;;;5071219;28;20170;-71
2022/11/22 06:05:10;;;;;;;468.53;434.13;;;5.40;34.50;;;;;;5071418;28;20204;-71
2022/11/22 06:07:35;;;;;;;472.13;441.23;;;5.40;34.20;;;;;;5071633;28;20178;-71
2022/11/22 06:10:01;;;;;;;549.17;517.80;;;5.30;34.70;;;;;;5071343;28;20177;-71
2022/11/22 06:12:26;;;;;;;261.83;240.90;;;5.40;35.10;;;;;;5053192;28;20560;-71
2022/11/22 06:14:52;;;;;;;405.17;377.30;;;5.40;34.40;;;;;;5054797;28;20190;-71
2022/11/22 06:17:17;;;;;;;581.07;541.93;;;5.40;34.70;;;;;;5075525;28;20165;-71
2022/11/22 06:19:43;;;;;;;282.93;261.33;;;5.40;34.10;;;;;;5075413;28;20174;-71
2022/11/22 06:22:09;;;;;;;406.03;379.40;;;5.40;34.20;;;;;;5075188;28;20253;-71
2022/11/22 06:24:34;;;;;;;308.40;287.07;;;5.40;34.80;;;;;;5075319;28;20182;-71
2022/11/22 06:27:00;;;;;;;634.00;592.90;;;5.40;34.50;;;;;;5075245;28;20512;-72
2022/11/22 06:29:25;;;;;;;279.27;258.67;;;5.40;34.00;;;;;;5075162;28;20173;-70
2022/11/22 06:31:51;;;;;;;538.30;500.27;;;5.40;34.30;;;;;;5075113;28;20177;-70
2022/11/22 06:34:16;;;;;;;300.77;279.37;;;5.40;34.30;;;;;;5057903;28;20218;-71
2022/11/22 06:36:42;;;;;;;480.97;446.90;;;5.50;34.30;;;;;;5037264;28;20625;-71
2022/11/22 06:39:10;;;;;;;456.47;423.50;;;5.50;34.30;;;;;;5037179;28;20649;-70
2022/11/22 06:41:36;;;;;;;324.50;302.07;;;5.60;33.80;;;;;;5037110;28;20175;-69
2022/11/22 06:44:07;;;;;;;185.27;171.57;;;5.70;33.50;;;;;;5036786;28;20490;-72
2022/11/22 06:46:33;;;;;;;218.23;201.80;;;5.70;33.50;;;;;;5055216;28;20455;-70
2022/11/22 06:48:58;;;;;;;292.10;270.27;;;5.70;32.80;;;;;;5055091;28;20495;-69
2022/11/22 06:51:29;;;;;;;310.83;288.47;;;5.70;32.60;;;;;;5068981;28;20515;-69
2022/11/22 06:53:56;;;;;;;701.00;652.60;;;5.70;32.70;;;;;;5074816;28;20600;-70
2022/11/22 06:56:23;;;;;;;645.97;605.90;;;5.70;33.20;;;;;;5074879;28;20426;-70
2022/11/22 06:58:50;;;;;;;233.03;216.17;;;5.70;33.20;;;;;;5056948;28;20470;-70
2022/11/22 07:01:21;;;;;;;526.93;494.67;;;5.70;33.50;;;;;;5074797;28;20447;-69
2022/11/22 07:03:47;;;;;;;480.80;449.50;;;5.80;32.50;;;;;;5056527;28;20918;-69
2022/11/22 07:06:14;;;;;;;419.60;390.30;;;5.90;31.30;;;;;;5074438;28;20977;-70
2022/11/22 07:08:40;;;;;;;678.67;633.63;;;5.90;31.30;;;;;;5074703;28;20414;-70
2022/11/22 07:11:09;;;;;;;381.67;355.87;;;6.10;29.90;;;;;;5074870;28;20435;-69
2022/11/22 07:13:35;;;;;;;315.33;292.67;;;6.10;29.70;;;;;;5074288;28;21068;-69
2022/11/22 07:16:03;;;;;;;435.10;404.60;;;6.20;29.10;;;;;;5074456;28;20421;-70
2022/11/22 07:18:29;;;;;;;621.60;584.03;;;6.20;29.10;;;;;;5074632;28;20443;-69
2022/11/22 07:21:25;;;;;;;574.03;538.03;;;6.30;28.90;;;;;;5074247;28;20416;-70
2022/11/22 07:23:53;;;;;;;613.43;573.13;;;6.50;28.60;;;;;;5056706;28;20444;-70
2022/11/22 07:26:20;;;;;;;600.53;559.53;;;6.50;28.20;;;;;;5055313;28;20452;-69
2022/11/22 07:28:46;;;;;;;340.90;317.33;;;6.70;28.10;;;;;;5074148;28;20506;-69
2022/11/22 07:31:13;;;;;;;224.80;208.73;;;6.70;27.60;;;;;;5055993;28;21141;-70
2022/11/22 07:33:39;;;;;;;369.87;342.83;;;6.70;26.60;;;;;;5052152;28;20486;-70
2022/11/22 07:36:13;;;;;;;393.37;366.23;;;6.70;26.80;;;;;;5053869;28;20449;-70
2022/11/22 07:38:39;;;;;;;241.67;223.27;;;6.70;27.10;;;;;;5036173;28;20724;-69
2022/11/22 07:41:05;;;;;;;265.77;247.27;;;6.60;27.30;;;;;;5053858;28;20509;-70
2022/11/22 07:43:31;;;;;;;452.43;423.37;;;6.60;27.00;;;;;;5035487;28;20286;-70
2022/11/22 07:46:02;;;;;;;209.27;193.50;;;6.60;27.00;;;;;;5053811;28;20885;-70
2022/11/22 07:48:28;;;;;;;398.03;372.20;;;6.60;27.50;;;;;;5053745;28;20183;-70
2022/11/22 07:50:54;;;;;;;281.97;261.07;;;6.70;26.60;;;;;;5053623;28;20957;-70
2022/11/22 07:53:19;;;;;;;479.90;447.37;;;6.80;26.00;;;;;;5040621;28;20442;-71
2022/11/22 07:55:45;;;;;;;450.97;422.90;;;6.90;26.20;;;;;;5057260;28;20181;-70
2022/11/22 07:58:10;;;;;;;605.77;567.70;;;6.90;26.00;;;;;;5054768;28;20180;-71
2022/11/22 08:00:36;;;;;;;312.63;291.47;;;7.00;25.70;;;;;;5054364;28;20177;-71
2022/11/22 08:03:01;;;;;;;506.63;475.53;;;7.00;26.60;;;;;;5053464;28;20192;-71
2022/11/22 08:05:27;;;;;;;482.80;452.47;;;7.00;25.90;;;;;;5053543;28;20201;-71
2022/11/22 08:07:53;;;;;;;537.43;505.43;;;7.10;25.60;;;;;;5053599;28;20178;-71
2022/11/22 08:10:20;;;;;;;314.50;293.60;;;7.20;25.70;;;;;;5053359;28;20231;-70
2022/11/22 08:12:46;;;;;;;554.20;519.43;;;7.20;25.20;;;;;;5053224;28;20771;-70
2022/11/22 08:15:13;;;;;;;656.23;612.80;;;7.30;25.70;;;;;;5035460;28;20862;-71
2022/11/22 08:17:39;;;;;;;289.37;269.67;;;7.40;25.40;;;;;;5053236;28;20418;-69
2022/11/22 08:20:08;;;;;;;514.47;483.27;;;7.40;25.00;;;;;;5053251;28;20499;-70
2022/11/22 08:22:33;;;;;;;430.90;402.90;;;7.50;24.50;;;;;;5035232;28;20204;-70
2022/11/22 08:24:59;;;;;;;424.20;397.40;;;7.40;24.30;;;;;;5053125;28;20461;-72
2022/11/22 08:27:25;;;;;;;280.30;260.00;;;7.40;24.30;;;;;;5053086;28;20426;-70
2022/11/22 08:29:50;;;;;;;342.43;319.70;;;7.50;24.60;;;;;;5053172;28;20175;-70
2022/11/22 08:32:16;;;;;;;365.53;339.40;;;7.50;24.40;;;;;;5052756;28;20177;-70
2022/11/22 08:34:41;;;;;;;525.47;491.00;;;7.70;24.30;;;;;;5052953;28;20229;-70
2022/11/22 08:37:07;;;;;;;375.73;350.77;;;7.70;23.80;;;;;;5045686;28;20242;-70
2022/11/22 08:39:32;;;;;;;323.63;300.87;;;7.70;24.00;;;;;;5041801;28;20252;-70
2022/11/22 08:41:58;;;;;;;397.47;371.77;;;7.70;24.20;;;;;;5066286;28;20328;-70
2022/11/22 08:44:23;;;;;;;552.93;520.00;;;7.70;23.60;;;;;;5071434;28;20238;-70
2022/11/22 08:46:49;;;;;;;329.57;307.90;;;7.80;24.30;;;;;;5072134;28;20469;-70
2022/11/22 08:49:14;;;;;;;356.10;332.67;;;7.90;23.60;;;;;;5072021;28;20207;-70
2022/11/22 08:51:43;;;;;;;423.83;396.03;;;8.10;23.10;;;;;;5053685;28;20220;-70
2022/11/22 08:54:10;;;;;;;537.90;505.17;;;8.10;22.70;;;;;;5072286;28;20213;-70
2022/11/22 08:56:36;;;;;;;333.73;310.80;;;8.20;22.20;;;;;;5072701;28;20437;-70
2022/11/22 08:59:01;;;;;;;459.60;429.23;;;8.30;21.20;;;;;;5072598;28;20506;-70
2022/11/22 09:01:27;;;;;;;526.67;495.73;;;8.40;20.40;;;;;;5050979;28;20198;-70
2022/11/22 09:03:52;;;;;;;305.00;285.00;;;8.60;20.30;;;;;;5056892;28;20216;-70
2022/11/22 09:06:19;;;;;;;457.73;430.10;;;8.80;18.80;;;;;;5052183;28;20263;-70
2022/11/22 09:08:45;;;;;;;331.90;311.23;;;8.80;18.30;;;;;;5040269;28;20190;-70
2022/11/22 09:11:14;;;;;;;233.00;215.87;;;8.70;18.30;;;;;;5082125;28;20467;-70
2022/11/22 09:13:40;;;;;;;488.77;460.17;;;8.70;18.50;;;;;;5053327;28;20444;-70
2022/11/22 09:16:12;;;;;;;560.97;529.70;;;9.00;18.50;;;;;;5053935;28;20804;-70
2022/11/22 09:18:38;;;;;;;271.63;252.47;;;9.10;18.50;;;;;;5072029;28;20772;-70
2022/11/22 09:21:09;;;;;;;619.03;581.73;;;8.90;16.60;;;;;;5071847;28;20447;-70
2022/11/22 09:23:36;;;;;;;392.00;366.63;;;9.10;17.10;;;;;;5071309;28;20300;-70
2022/11/22 09:26:05;;;;;;;463.70;436.87;;;9.20;16.60;;;;;;5071423;28;20462;-70
2022/11/22 09:28:30;;;;;;;419.73;394.40;;;9.20;17.00;;;;;;5071616;28;20413;-70
2022/11/22 09:31:08;;;;;;;364.30;341.20;;;9.20;16.00;;;;;;5071793;28;20773;-70
2022/11/22 09:33:35;;;;;;;479.87;451.77;;;9.30;16.10;;;;;;5070891;28;20219;-70
2022/11/22 09:36:03;;;;;;;273.33;254.97;;;9.40;15.80;;;;;;5071723;28;20446;-70
2022/11/22 09:38:30;;;;;;;266.63;248.53;;;9.40;13.60;;;;;;5072092;28;20502;-70
2022/11/22 09:40:56;;;;;;;344.70;322.73;;;9.10;14.40;;;;;;5071752;28;20446;-70
2022/11/22 09:43:35;;;;;;;439.27;410.70;;;9.10;15.00;;;;;;5071065;28;20500;-70
2022/11/22 09:46:12;;;;;;;148.73;135.90;;;9.00;14.80;;;;;;5071185;28;20448;-70
2022/11/22 09:49:10;;;;;;;244.50;227.80;;;9.10;15.00;;;;;;5071686;28;20773;-70
2022/11/22 09:51:40;;;;;;;250.37;232.20;;;9.00;14.70;;;;;;5064504;28;20471;-70
2022/11/22 09:54:11;;;;;;;360.80;338.37;;;9.00;14.30;;;;;;5071263;28;20801;-70
2022/11/22 09:56:38;;;;;;;244.20;228.03;;;8.90;14.30;;;;;;5071669;28;20764;-70
2022/11/22 09:59:12;;;;;;;283.03;263.77;;;9.10;14.20;;;;;;5071740;28;20622;-70
2022/11/22 10:01:50;;;;;;;226.80;210.27;;;9.30;14.10;;;;;;5071505;28;20410;-70
2022/11/22 10:04:21;;;;;;;118.93;107.57;;;9.40;13.80;;;;;;5071278;28;20844;-70
2022/11/22 10:06:55;;;;;;;426.60;399.63;;;9.60;14.10;;;;;;5071310;28;20457;-70
2022/11/22 10:09:23;;;;;;;372.70;347.07;;;9.40;12.10;;;;;;5071495;28;20440;-72
2022/11/22 10:11:53;;;;;;;269.23;248.20;;;9.10;11.50;;;;;;5070976;28;20459;-70
2022/11/22 10:14:40;;;;;;;360.17;338.90;;;8.70;12.00;;;;;;5071101;28;20553;-70
2022/11/22 10:17:35;;;;;;;351.87;329.67;;;8.70;12.90;;;;;;5071327;28;20415;-70
2022/11/22 10:20:05;;;;;;;237.53;220.60;;;8.80;12.60;;;;;;5053599;28;20431;-70
2022/11/22 10:22:32;;;;;;;198.93;184.50;;;8.60;12.30;;;;;;5071152;28;20482;-68
2022/11/22 10:24:59;;;;;;;390.30;364.60;;;8.60;12.70;;;;;;5076454;28;20424;-70
2022/11/22 10:27:31;;;;;;;369.67;349.10;;;8.50;13.20;;;;;;5059180;28;20477;-69
2022/11/22 10:30:05;;;;;;;150.93;138.10;;;8.60;13.40;;;;;;5077420;28;20418;-68
2022/11/22 10:33:05;;;;;;;236.93;220.63;;;8.40;14.10;;;;;;5077101;28;20411;-69
2022/11/22 10:35:40;;;;;;;291.77;271.87;;;8.50;13.60;;;;;;5021495;28;20423;-68
2022/11/22 10:38:33;;;;;;;240.40;224.87;;;8.60;12.10;;;;;;5079207;28;20416;-69
2022/11/22 10:41:23;;;;;;;278.83;262.07;;;8.60;12.30;;;;;;5079012;28;20438;-69
2022/11/22 10:44:01;;;;;;;238.40;221.83;;;8.80;12.50;;;;;;5078644;28;20435;-68
2022/11/22 10:46:54;;;;;;;352.87;328.10;;;8.80;11.20;;;;;;5059349;28;20490;-70
2022/11/22 10:49:37;;;;;;;263.53;245.40;;;8.70;9.60;;;;;;5077834;28;20503;-69
2022/11/22 10:52:14;;;;;;;252.80;236.17;;;8.60;13.90;;;;;;5074146;28;20421;-69
2022/11/22 10:54:59;;;;;;;239.90;223.50;;;8.60;16.20;;;;;;5071815;28;20570;-69
2022/11/22 10:57:55;;;;;;;237.13;221.37;;;8.80;16.00;;;;;;5071613;28;20446;-69
2022/11/22 11:00:25;;;;;;;370.50;350.60;;;9.00;16.20;;;;;;5072060;28;20740;-70
2022/11/22 11:03:19;;;;;;;266.73;249.97;;;9.30;16.60;;;;;;5074732;28;20428;-70
2022/11/22 11:05:52;;;;;;;306.00;288.40;;;9.20;15.40;;;;;;5072357;28;20461;-70
2022/11/22 11:08:34;;;;;;;412.73;387.73;;;9.20;10.40;;;;;;5074708;28;20812;-70
2022/11/22 11:11:01;;;;;;;428.80;404.93;;;9.40;10.10;;;;;;5074864;28;20419;-70
2022/11/22 11:13:35;;;;;;;266.93;249.40;;;9.80;9.30;;;;;;5074353;28;20458;-70
2022/11/22 11:16:07;;;;;;;277.20;259.43;;;9.70;10.20;;;;;;5074582;28;20773;-69
2022/11/22 11:18:54;;;;;;;296.10;278.03;;;9.40;11.50;;;;;;5056570;28;20512;-68
2022/11/22 11:21:20;;;;;;;294.40;275.00;;;9.50;10.90;;;;;;5074446;28;20420;-68
2022/11/22 11:23:47;;;;;;;336.70;314.67;;;9.40;10.80;;;;;;5056823;28;20495;-69
2022/11/22 11:26:31;;;;;;;321.23;299.97;;;9.30;15.80;;;;;;5057039;28;20205;-69
2022/11/22 11:29:18;;;;;;;336.00;316.63;;;9.10;11.20;;;;;;5074677;28;20457;-69
2022/11/22 13:47:22;;;;;;;297.57;277.30;;;8.60;13.10;;;;;;5088767;28;20476;-69
2022/11/22 13:49:49;;;;;;;239.43;222.93;;;8.50;13.80;;;;;;5081574;28;20414;-69
2022/11/22 13:52:15;;;;;;;269.00;251.60;;;8.30;11.80;;;;;;5053389;28;20793;-70
2022/11/22 13:54:46;;;;;;;239.23;222.50;;;8.30;11.60;;;;;;5071679;28;20421;-70
2022/11/22 13:57:40;;;;;;;325.80;305.27;;;8.30;11.20;;;;;;5118947;22;20231;-72
2022/11/22 14:02:54;;;;;;;248.30;231.80;;;8.20;12.20;;;;;;5111948;28;20546;-71
2022/11/22 14:05:22;;;;;;;356.00;335.07;;;8.30;11.70;;;;;;5112026;28;20398;-71
2022/11/22 14:07:52;;;;;;;307.13;288.10;;;8.30;11.50;;;;;;5112234;28;20495;-73
2022/11/22 14:10:48;;;;;;;326.00;304.53;;;8.20;12.20;;;;;;5112296;28;20798;-70
2022/11/22 14:13:32;;;;;;;214.73;199.13;;;8.10;11.80;;;;;;5093626;28;20451;-68
2022/11/22 14:16:22;;;;;;;362.00;338.50;;;8.10;11.00;;;;;;5112031;28;20435;-70
2022/11/22 14:19:22;;;;;;;170.83;157.83;;;8.00;10.90;;;;;;5112348;28;20414;-70
2022/11/22 14:21:56;;;;;;;242.60;226.47;;;7.90;11.70;;;;;;5088972;28;20616;-71
2022/11/22 14:24:43;;;;;;;291.57;272.60;;;7.80;12.50;;;;;;5112030;28;20781;-70
2022/11/22 14:27:33;;;;;;;330.97;312.13;;;7.80;11.80;;;;;;5111936;28;20472;-71
2022/11/22 14:30:19;;;;;;;303.33;284.30;;;7.80;11.40;;;;;;5093700;28;20792;-71
2022/11/22 14:32:49;;;;;;;204.47;189.27;;;7.90;12.50;;;;;;5111707;28;20492;-71
2022/11/22 14:35:22;;;;;;;130.03;118.63;;;7.80;12.60;;;;;;5111751;28;20824;-70
2022/11/22 14:38:22;;;;;;;289.20;270.83;;;7.90;13.40;;;;;;5114905;28;20769;-70
2022/11/22 14:40:47;;;;;;;199.83;185.47;;;8.00;12.40;;;;;;5115879;28;21007;-70
2022/11/22 14:43:27;;;;;;;339.07;317.87;;;7.90;12.10;;;;;;5115547;28;20412;-70
2022/11/22 14:46:00;;;;;;;349.10;329.27;;;7.90;12.50;;;;;;5115683;28;20243;-70
2022/11/22 14:48:43;;;;;;;369.43;348.93;;;7.90;12.40;;;;;;5115840;28;20941;-71
2022/11/22 14:51:24;;;;;;;353.80;333.60;;;7.90;13.10;;;;;;5115733;28;20448;-71
2022/11/22 14:53:54;;;;;;;196.83;182.67;;;7.90;13.90;;;;;;5115379;28;20437;-70
2022/11/22 14:56:33;;;;;;;328.27;309.77;;;7.70;11.60;;;;;;5096825;28;20458;-70
2022/11/22 14:59:21;;;;;;;105.60;95.77;;;7.70;12.40;;;;;;5097333;28;20427;-70
2022/11/22 15:02:03;;;;;;;448.07;422.50;;;7.70;12.50;;;;;;5096906;28;20439;-70
2022/11/22 15:04:58;;;;;;;349.83;327.97;;;7.70;12.50;;;;;;5115469;28;20784;-72